Latest Weather Observations for Bathurst Airport

IDN60801

Issued at 1:05 pm EST Wednesday 23 July 2014 (issued every 30 minutes, with the page automatically refreshed every 10 minutes)

About weather observations | Map of weather stations | Latest weather observations for NSW | Other Formats
Station Details ID: 063291 Name: BATHURST AIRPORT AWS Lat: -33.41 Lon: 149.65 Height: 744.5 m
Data from the previous 72 hours. | See also: Recent months for locations in New South Wales
Date/Time
EST
Temp
°C
App
Temp
°C
Dew
Point
Rel
Hum
%
Delta-T
°C
Wind Press
QNH
hPa
Press
MSL
hPa
Rain
since 9 am
mm
Dir
 
Spd
km/h
Gust
km/h
Spd
kts
Gust
kts
23/01:00pm 11.8 9.7 5.7 66 3.0 W 6 11 3 6 1022.3 1023.3 0.0
23/12:30pm 11.0 9.3 5.7 70 2.5 WNW 4 7 2 4 1022.7 - 0.0
23/12:00pm 8.9 7.2 5.8 81 1.5 WSW 4 9 2 5 1023.6 1024.6 0.0
23/11:30am 7.5 5.5 6.4 93 0.5 WSW 6 7 3 4 1024.4 - 0.0
23/11:04am 5.1 4.0 5.0 99 0.0 SW 0 0 0 0 1024.9 - 0.0
23/11:00am 4.8 3.6 4.7 99 0.0 CALM 0 6 0 3 1025.0 1026.0 0.0
23/10:59am 4.7 3.5 4.7 100 0.0 CALM 0 6 0 3 1025.0 - 0.0
23/10:30am 3.1 0.5 3.1 100 0.0 W 6 7 3 4 1025.4 - 0.0
23/10:00am 2.5 -0.4 2.5 100 0.0 W 7 9 4 5 1025.5 1026.5 0.0
23/09:30am 1.6 -0.9 1.5 99 0.0 SW 4 7 2 4 1025.4 - 0.0
23/09:00am 0.1 -3.0 0.0 99 0.0 SSW 6 7 3 4 1025.5 1026.5 0.2
23/08:30am -0.8 -2.9 -0.9 99 0.0 CALM 0 0 0 0 1025.4 - 0.2
23/08:00am -1.9 -5.3 -2.0 99 -0.1 NNE 6 7 3 4 1025.2 1026.2 0.2
23/07:30am -1.8 -5.4 -1.9 99 0.0 E 7 7 4 4 1024.8 - 0.2
23/07:00am -2.6 -6.1 -2.7 99 -0.1 SW 6 7 3 4 1024.7 1025.7 0.2
23/06:30am -1.7 -5.3 -1.8 99 0.0 SSW 7 9 4 5 1024.1 - 0.2
23/06:11am -1.9 -5.3 -2.0 99 -0.1 S 6 9 3 5 1023.6 - 0.2
23/06:00am -1.0 -3.5 -1.1 99 0.0 S 2 7 1 4 1023.6 1024.6 0.2
23/05:30am -1.0 -3.1 -1.1 99 0.0 CALM 0 0 0 0 1023.5 - 0.2
23/05:28am -1.2 -3.4 -1.3 99 0.0 CALM 0 0 0 0 1023.6 - 0.2
23/05:00am -1.9 -5.3 -2.0 99 -0.1 SW 6 7 3 4 1023.7 1024.7 0.2
23/04:47am -1.7 -5.1 -1.8 99 0.0 SW 6 7 3 4 1023.6 - 0.2
23/04:30am -0.9 -3.4 -1.0 99 0.0 SW 2 9 1 5 1023.4 - 0.2
23/04:28am -0.7 -3.2 -0.8 99 0.0 S 2 7 1 4 1023.4 - 0.2
23/04:08am -0.2 -3.4 -0.3 99 0.0 S 6 7 3 4 1022.9 - 0.2
23/04:00am -1.0 -4.5 -1.1 99 0.0 S 7 9 4 5 1022.9 1023.9 0.2
23/03:48am -0.6 -3.1 -0.7 99 0.0 SSE 2 7 1 4 1023.0 - 0.2
23/03:30am 0.4 -1.5 0.3 99 0.0 CALM 0 0 0 0 1023.0 - 0.2
23/03:06am 0.6 -1.3 0.5 99 0.0 CALM 0 0 0 0 1023.1 - 0.2
23/03:00am 1.0 -0.8 0.9 99 0.0 CALM 0 0 0 0 1023.3 1024.2 0.2
23/02:50am 0.6 -1.3 0.5 99 0.0 CALM 0 0 0 0 1023.4 - 0.2
23/02:30am 0.8 -1.8 0.7 99 0.0 SSE 4 6 2 3 1023.5 - 0.2
23/02:15am 1.1 -2.1 1.0 99 0.0 S 7 9 4 5 1023.5 - 0.2
23/02:00am 1.4 -0.4 1.3 99 0.0 CALM 0 0 0 0 1023.6 1024.6 0.2
23/01:47am 1.0 -0.8 0.9 99 0.0 SSW 0 0 0 0 1023.7 - 0.2
23/01:30am 1.6 -0.5 1.5 99 0.0 SSW 2 7 1 4 1023.8 - 0.2
23/01:00am 1.9 0.2 1.8 99 0.0 CALM 0 0 0 0 1023.9 1024.9 0.2
23/12:30am 2.0 0.3 1.9 99 0.0 CALM 0 0 0 0 1023.7 - 0.2
23/12:00am 2.2 -0.8 2.1 99 0.0 SSW 7 9 4 5 1024.0 1025.0 0.2
 
Date/Time
EST
Temp
°C
App
Temp
°C
Dew
Point
Rel
Hum
%
Delta-T
°C
Wind Press
QNH
hPa
Press
MSL
hPa
Rain
since 9 am
mm
Dir
 
Spd
km/h
Gust
km/h
Spd
kts
Gust
kts
22/11:30pm 2.5 -0.4 2.4 99 0.0 SSW 7 11 4 6 1024.0 - 0.2
22/11:00pm 4.1 1.5 4.0 99 0.0 SSE 7 7 4 4 1023.9 1024.9 0.2
22/10:30pm 3.8 1.3 3.7 99 0.0 E 6 11 3 6 1023.9 - 0.2
22/10:00pm 3.7 1.9 3.6 99 0.0 N 2 6 1 3 1023.8 1024.8 0.2
22/09:30pm 3.9 1.7 3.3 96 0.3 NNE 4 7 2 4 1023.7 - 0.2
22/09:00pm 5.5 4.2 4.0 90 0.7 CALM 0 0 0 0 1023.7 1024.7 0.2
22/08:30pm 5.0 2.6 4.4 96 0.3 NNE 6 7 3 4 1023.7 - 0.2
22/08:00pm 4.9 3.5 3.6 91 0.6 CALM 0 0 0 0 1023.6 1024.6 0.2
22/07:30pm 4.9 2.3 3.4 90 0.7 ENE 6 9 3 5 1023.5 - 0.2
22/07:00pm 6.6 3.4 3.2 79 1.5 ESE 9 13 5 7 1023.4 1024.4 0.2
22/06:30pm 8.2 5.5 3.9 74 1.9 S 7 9 4 5 1023.3 - 0.2
22/06:00pm 9.0 6.4 4.0 71 2.3 SW 7 7 4 4 1023.0 1024.0 0.2
22/05:30pm 9.9 7.2 3.9 66 2.8 WSW 7 9 4 5 1022.6 - 0.2
22/05:00pm 10.9 8.4 3.7 61 3.3 WSW 6 7 3 4 1022.3 1023.3 0.2
22/04:30pm 12.6 10.2 5.1 60 3.6 WSW 7 7 4 4 1022.4 - 0.2
22/04:00pm 12.9 10.2 3.6 53 4.3 W 7 11 4 6 1022.2 1023.2 0.2
22/03:30pm 13.2 11.0 3.6 52 4.5 W 4 9 2 5 1022.2 - 0.2
22/03:00pm 12.9 10.2 3.6 53 4.3 W 7 11 4 6 1022.2 1023.2 0.2
22/02:30pm 12.6 10.0 3.3 53 4.3 SW 6 11 3 6 1022.1 - 0.2
22/02:00pm 13.1 11.1 4.5 56 4.1 NNW 4 7 2 4 1022.3 1023.3 0.2
22/01:30pm 11.5 8.9 3.0 56 3.9 NW 6 7 3 4 1022.5 - 0.2
22/01:00pm 10.5 8.4 5.9 73 2.2 W 6 7 3 4 1022.8 1023.8 0.2
22/12:30pm 8.6 6.5 5.7 82 1.4 SW 6 9 3 5 1023.3 - 0.0
22/12:02pm 7.6 5.5 5.6 87 0.9 W 6 11 3 6 1023.8 - 0.0
22/12:00pm 7.4 5.2 5.5 88 0.9 W 6 9 3 5 1023.8 1024.8 0.0
22/11:46am 7.2 5.1 5.8 91 0.7 WNW 6 7 3 4 1024.1 - 0.0
22/11:30am 5.7 3.6 5.6 99 0.0 W 6 11 3 6 1024.4 - 0.0
22/11:00am 5.4 4.3 5.3 99 0.0 CALM 0 7 0 4 1024.9 1025.9 0.0
22/10:30am 4.7 2.2 4.7 100 0.0 WSW 7 11 4 6 1025.0 - 0.0
22/10:00am 4.6 2.1 4.6 100 0.0 WSW 7 9 4 5 1025.1 1026.1 0.0
22/09:30am 4.3 3.0 4.3 100 0.0 CALM 0 0 0 0 1025.2 - 0.0
22/09:00am 1.8 0.1 1.7 99 0.0 CALM 0 0 0 0 1025.0 1026.0 0.2
22/08:30am -0.1 -2.1 -0.2 99 0.0 CALM 0 0 0 0 1024.7 - 0.2
22/08:00am -0.6 -2.7 -0.7 99 0.0 CALM 0 0 0 0 1024.4 1025.5 0.2
22/07:30am -0.8 -2.9 -0.9 99 0.0 CALM 0 0 0 0 1024.1 - 0.2
22/07:00am -0.3 -2.7 -0.4 99 0.0 SW 2 6 1 3 1024.0 1025.0 0.2
22/06:30am -0.3 -3.5 -0.4 99 0.0 NNW 6 9 3 5 1023.9 - 0.2
22/06:24am -0.4 -3.2 -0.5 99 0.0 N 4 7 2 4 1023.9 - 0.2
22/06:07am -0.2 -3.6 -0.3 99 0.0 N 7 7 4 4 1023.7 - 0.2
22/06:03am 0.0 -3.3 -0.1 99 0.0 N 7 7 4 4 1023.7 - 0.2
22/06:00am 0.0 -3.1 -0.1 99 0.0 NNE 6 7 3 4 1023.7 1024.7 0.2
22/05:30am 0.0 -2.8 -0.1 99 0.0 N 4 7 2 4 1023.5 - 0.2
22/05:28am 0.1 -2.3 0.0 99 0.0 N 2 7 1 4 1023.5 - 0.2
22/05:00am -0.4 -3.2 -0.5 99 0.0 E 4 9 2 5 1023.1 1024.1 0.2
22/04:52am 0.8 -2.8 0.7 99 0.0 SE 9 13 5 7 1023.0 - 0.2
22/04:47am 2.0 -2.2 1.9 99 0.0 SE 13 15 7 8 1023.0 - 0.2
22/04:30am 1.4 -2.9 1.3 99 0.0 SE 13 13 7 7 1022.9 - 0.2
22/04:00am 0.6 -1.3 0.5 99 0.0 CALM 0 0 0 0 1022.9 1023.9 0.2
22/03:49am 1.2 -0.6 1.1 99 0.0 CALM 0 6 0 3 1022.9 - 0.2
22/03:30am 1.8 -1.1 1.7 99 0.0 S 6 7 3 4 1022.9 - 0.2
22/03:00am 1.7 -1.4 1.6 99 0.0 SW 7 7 4 4 1023.0 1024.0 0.2
22/02:58am 1.6 -1.3 1.5 99 0.0 SW 6 7 3 4 1023.0 - 0.2
22/02:34am 1.1 -1.9 1.0 99 0.0 SSE 6 9 3 5 1023.1 - 0.2
22/02:30am 1.4 -1.1 1.3 99 0.0 ESE 4 7 2 4 1023.0 - 0.2
22/02:00am 1.9 -0.2 1.8 99 0.0 SW 2 9 1 5 1023.0 1024.0 0.2
22/01:30am 3.0 -0.2 2.9 99 0.0 SSE 9 11 5 6 1023.3 - 0.2
22/01:00am 4.5 3.3 4.4 99 0.0 CALM 0 7 0 4 1023.3 1024.2 0.2
22/12:30am 4.3 2.6 4.2 99 0.0 SSE 2 7 1 4 1023.5 - 0.2
22/12:00am 4.1 2.8 4.0 99 0.0 CALM 0 0 0 0 1023.6 1024.6 0.2
 
Date/Time
EST
Temp
°C
App
Temp
°C
Dew
Point
Rel
Hum
%
Delta-T
°C
Wind Press
QNH
hPa
Press
MSL
hPa
Rain
since 9 am
mm
Dir
 
Spd
km/h
Gust
km/h
Spd
kts
Gust
kts
21/11:30pm 4.2 2.9 4.1 99 0.0 CALM 0 0 0 0 1023.7 - 0.2
21/11:00pm 4.4 3.0 3.7 95 0.3 CALM 0 6 0 3 1023.6 1024.6 0.2
21/10:30pm 5.5 2.9 4.3 92 0.5 SE 7 11 4 6 1023.7 - 0.2
21/10:00pm 5.6 3.3 4.6 93 0.4 ESE 6 7 3 4 1023.7 1024.7 0.2
21/09:30pm 4.7 2.9 3.5 92 0.5 E 2 7 1 4 1023.7 - 0.2
21/09:00pm 6.5 3.6 4.8 89 0.8 E 9 13 5 7 1023.7 1024.7 0.2
21/08:30pm 6.1 3.5 4.1 87 0.9 ENE 7 9 4 5 1023.6 - 0.2
21/08:00pm 6.6 3.8 3.2 79 1.5 ENE 7 9 4 5 1023.6 1024.6 0.2
21/07:30pm 7.4 4.5 4.4 81 1.4 E 9 11 5 6 1023.6 - 0.2
21/07:00pm 8.3 5.8 4.7 78 1.7 E 7 9 4 5 1023.4 1024.4 0.2
21/06:30pm 8.7 6.3 5.3 79 1.6 ENE 7 9 4 5 1023.3 - 0.2
21/06:00pm 9.3 8.2 4.9 74 2.1 CALM 0 0 0 0 1022.9 1023.9 0.2
21/05:30pm 9.3 7.2 5.7 78 1.7 NNW 6 7 3 4 1022.8 - 0.2
21/05:00pm 10.2 9.2 5.6 73 2.2 CALM 0 0 0 0 1022.7 1023.7 0.2
21/04:30pm 10.7 8.4 5.5 70 2.5 NNW 7 7 4 4 1022.5 - 0.2
21/04:00pm 12.1 9.8 4.8 61 3.5 NNW 6 9 3 5 1022.5 1023.5 0.2
21/03:30pm 13.0 10.5 4.9 58 3.9 WNW 7 9 4 5 1022.5 - 0.2
21/03:00pm 12.3 10.0 4.8 60 3.6 WNW 6 11 3 6 1022.6 1023.6 0.2
21/02:30pm 12.3 9.4 4.8 60 3.6 N 9 13 5 7 1022.6 - 0.2
21/02:00pm 11.8 8.9 4.8 62 3.3 NNW 9 13 5 7 1022.7 1023.7 0.2
21/01:30pm 11.5 9.1 5.2 65 3.0 W 7 11 4 6 1022.8 - 0.2
21/01:00pm 10.5 8.0 4.9 68 2.6 WSW 7 11 4 6 1023.0 1024.0 0.2
21/12:30pm 9.5 6.9 4.3 70 2.4 WSW 7 11 4 6 1023.5 - 0.2
21/12:00pm 8.7 6.3 5.3 79 1.6 WSW 7 9 4 5 1024.0 1025.0 0.2
21/11:30am 7.6 6.5 6.7 94 0.4 W 2 7 1 4 1024.7 - 0.2
21/11:12am 7.0 5.5 6.9 99 0.0 NNW 4 7 2 4 1025.1 - 0.2
21/11:02am 6.6 5.1 6.6 100 0.0 N 4 7 2 4 1025.3 - 0.0
21/11:00am 6.4 4.8 6.4 100 0.0 N 4 7 2 4 1025.3 1026.3 0.0
21/10:30am 3.8 1.7 3.8 100 0.0 N 4 6 2 3 1025.7 - 0.0
21/10:00am 2.5 0.9 2.5 100 0.0 CALM 0 0 0 0 1026.1 1027.1 0.0
21/09:30am 0.9 -1.3 0.8 99 0.0 WSW 2 6 1 3 1026.2 - 0.0
21/09:00am 1.0 -2.2 0.9 99 0.0 WSW 7 9 4 5 1026.2 1027.2 0.0
21/08:30am 0.0 -3.3 -0.1 99 0.0 S 7 9 4 5 1025.9 - 0.0
21/08:00am -0.6 -3.8 -0.7 99 0.0 SW 6 7 3 4 1025.9 1027.0 0.0
21/07:30am -0.8 -5.0 -0.9 99 0.0 S 11 15 6 8 1025.6 - 0.0
21/07:00am -2.2 -5.3 -2.3 99 -0.1 SSW 4 7 2 4 1025.6 1026.7 0.0
21/06:58am -2.2 -5.6 -2.3 99 -0.1 SSW 6 11 3 6 1025.6 - 0.0
21/06:30am -1.4 -5.3 -1.5 99 0.0 S 9 11 5 6 1025.4 - 0.0
21/06:10am -1.5 -5.4 -1.6 99 0.0 S 9 11 5 6 1025.5 - 0.0
21/06:00am -0.3 -3.7 -0.4 99 0.0 S 7 11 4 6 1025.6 1026.7 0.0
21/05:49am 0.0 -4.1 -0.1 99 0.0 SE 11 13 6 7 1025.7 - 0.0
21/05:30am -0.4 -3.8 -0.5 99 0.0 SSE 7 11 4 6 1025.7 - 0.0
21/05:01am -1.3 -3.5 -1.4 99 0.0 CALM 0 0 0 0 1025.7 - 0.0
21/05:00am -1.1 -3.3 -1.2 99 0.0 CALM 0 0 0 0 1025.7 1026.8 0.0
21/04:45am -0.9 -4.4 -1.0 99 0.0 S 7 7 4 4 1025.6 - 0.0
21/04:30am -0.3 -4.1 -0.4 99 0.0 S 9 9 5 5 1025.6 - 0.0
21/04:00am -0.4 -2.5 -0.5 99 0.0 CALM 0 6 0 3 1025.4 1026.4 0.0
21/03:30am -0.7 -2.8 -0.8 99 0.0 CALM 0 0 0 0 1025.5 - 0.0
21/03:00am -0.5 -3.3 -0.6 99 0.0 SSE 4 11 2 6 1025.5 1026.5 0.0
21/02:30am 0.2 -3.5 0.1 99 0.0 SSE 9 13 5 7 1025.5 - 0.0
21/02:00am 1.2 -2.3 1.1 99 0.0 SE 9 13 5 7 1025.5 1026.5 0.0
21/01:30am 1.2 -1.9 1.1 99 0.0 SSW 7 9 4 5 1025.8 - 0.0
21/01:00am 1.4 -1.7 1.3 99 0.0 SSW 7 7 4 4 1025.8 1026.9 0.0
21/12:41am 1.2 -1.8 1.1 99 0.0 WNW 6 7 3 4 1025.8 - 0.0
21/12:30am 1.0 -2.0 0.9 99 0.0 WNW 6 6 3 3 1025.8 - 0.0
21/12:17am 0.4 -2.7 0.3 99 0.0 WNW 6 7 3 4 1025.7 - 0.0
21/12:00am 1.1 -0.7 1.0 99 0.0 CALM 0 0 0 0 1025.7 1026.8 0.0
 
Date/Time
EST
Temp
°C
App
Temp
°C
Dew
Point
Rel
Hum
%
Delta-T
°C
Wind Press
QNH
hPa
Press
MSL
hPa
Rain
since 9 am
mm
Dir
 
Spd
km/h
Gust
km/h
Spd
kts
Gust
kts
20/11:30pm 1.7 -0.8 1.6 99 0.0 SSE 4 6 2 3 1025.5 - 0.0
20/11:00pm 2.3 -1.4 2.2 99 0.0 SSE 11 13 6 7 1025.6 1026.7 0.0
20/10:30pm 4.0 1.3 3.6 97 0.2 SE 7 9 4 5 1025.7 - 0.0
20/10:00pm 4.1 2.3 3.4 95 0.3 N 2 7 1 4 1025.9 1027.0 0.0
20/09:30pm 3.5 0.7 3.1 97 0.2 N 7 7 4 4 1026.1 - 0.0
20/09:00pm 4.3 2.7 2.7 89 0.7 CALM 0 0 0 0 1025.9 1027.0 0.0
20/08:30pm 5.6 2.9 3.9 89 0.8 S 7 7 4 4 1025.8 - 0.0
20/08:00pm 3.3 0.4 2.4 94 0.4 S 7 7 4 4 1025.7 1026.8 0.0
20/07:30pm 4.9 2.7 3.6 91 0.6 NE 4 6 2 3 1025.5 - 0.0
20/07:00pm 5.8 2.3 3.5 85 1.0 E 11 13 6 7 1025.4 1026.4 0.0
20/06:30pm 6.5 3.0 3.7 82 1.2 ENE 11 13 6 7 1025.3 - 0.0
20/06:00pm 7.5 4.8 3.6 76 1.7 ENE 7 9 4 5 1024.9 1025.9 0.0
20/05:30pm 8.1 5.0 3.8 74 1.9 ENE 9 9 5 5 1024.7 - 0.0
20/05:00pm 9.8 8.2 4.4 69 2.5 E 2 7 1 4 1024.7 1025.7 0.0
20/04:30pm 11.5 9.5 4.3 61 3.4 E 4 7 2 4 1024.7 - 0.0
20/04:00pm 11.0 8.5 4.0 62 3.2 E 6 7 3 4 1024.7 1025.7 0.0
20/03:30pm 11.7 9.3 5.1 64 3.2 NE 7 11 4 6 1024.7 - 0.0
20/03:00pm 11.4 9.2 5.3 66 2.9 NE 6 13 3 7 1024.7 1025.7 0.0
20/02:30pm 10.9 8.9 4.6 65 3.0 NNE 4 9 2 5 1024.9 - 0.0
20/02:00pm 10.8 8.3 4.0 63 3.1 ESE 6 13 3 7 1025.0 1026.0 0.0
20/01:30pm 11.0 8.8 5.3 68 2.7 E 6 9 3 5 1025.0 - 0.0

Other Formats:

Comma delimited format used in spreadsheet applications
http://www.bom.gov.au/fwo/IDN60801/IDN60801.94729.axf

JavaScript Object Notation format (JSON) in row-major order
http://www.bom.gov.au/fwo/IDN60801/IDN60801.94729.json